<?xml version="1.0" encoding="UTF-8" standalone="no" ?>
<gpx xmlns="http://www.topografix.com/GPX/1/1" xmlns:xsi="http://www.w3.org/2001/XMLSchema-instance" xsi:schemaLocation="http://www.topografix.com/GPX/1/1 http://www.topografix.com/GPX/1/1/gpx.xsd" version="1.1" creator="VisuGPX - https://www.visugpx.com">
  <metadata>
    <name>DH Plateau des Petites Roches</name>
  </metadata>
  <wpt lat="45.31652" lon="5.89215">
    <ele>909.4</ele>
  </wpt>
  <wpt lat="45.31652" lon="5.89215">
    <ele>909.4</ele>
  </wpt>
  <trk>
    <name><![CDATA[14437919-Sentier de montée station/ piste forestière]]></name>
    <extensions>
      <line xmlns="http://www.topografix.com/GPX/gpx_style/0/2">
        <color>FFFF00</color>
        <width>4</width>
      </line>
    </extensions>
    <trkseg>
      <trkpt lat="45.31403" lon="5.8857">
        <ele>972</ele>
        <time>2022-03-21T07:47:26Z</time>
      </trkpt>
      <trkpt lat="45.31388" lon="5.88534">
        <ele>976</ele>
        <time>2022-03-21T07:47:33Z</time>
      </trkpt>
      <trkpt lat="45.31355" lon="5.88494">
        <ele>983</ele>
        <time>2022-03-21T07:47:43Z</time>
      </trkpt>
      <trkpt lat="45.31279" lon="5.88498">
        <ele>992</ele>
        <time>2022-03-21T07:48:01Z</time>
      </trkpt>
      <trkpt lat="45.31248" lon="5.88508">
        <ele>995</ele>
        <time>2022-03-21T07:48:08Z</time>
      </trkpt>
      <trkpt lat="45.31192" lon="5.88505">
        <ele>1002</ele>
        <time>2022-03-21T07:48:21Z</time>
      </trkpt>
      <trkpt lat="45.31141" lon="5.88505">
        <ele>1006</ele>
        <time>2022-03-21T07:48:33Z</time>
      </trkpt>
      <trkpt lat="45.31088" lon="5.88483">
        <ele>1013</ele>
        <time>2022-03-21T07:48:46Z</time>
      </trkpt>
      <trkpt lat="45.31086" lon="5.88451">
        <ele>1020</ele>
        <time>2022-03-21T07:48:51Z</time>
      </trkpt>
      <trkpt lat="45.31084" lon="5.88429">
        <ele>1025</ele>
        <time>2022-03-21T07:48:55Z</time>
      </trkpt>
      <trkpt lat="45.3107" lon="5.8842">
        <ele>1024</ele>
        <time>2022-03-21T07:48:59Z</time>
      </trkpt>
      <trkpt lat="45.31053" lon="5.88413">
        <ele>1022</ele>
        <time>2022-03-21T07:49:03Z</time>
      </trkpt>
      <trkpt lat="45.31038" lon="5.884">
        <ele>1021</ele>
        <time>2022-03-21T07:49:07Z</time>
      </trkpt>
      <trkpt lat="45.31022" lon="5.88376">
        <ele>1022</ele>
        <time>2022-03-21T07:49:12Z</time>
      </trkpt>
      <trkpt lat="45.31056" lon="5.8839">
        <ele>1027</ele>
        <time>2022-03-21T07:49:21Z</time>
      </trkpt>
      <trkpt lat="45.31087" lon="5.8841">
        <ele>1030</ele>
        <time>2022-03-21T07:49:28Z</time>
      </trkpt>
      <trkpt lat="45.31125" lon="5.88422">
        <ele>1030</ele>
        <time>2022-03-21T07:49:38Z</time>
      </trkpt>
      <trkpt lat="45.31162" lon="5.88426">
        <ele>1032</ele>
        <time>2022-03-21T07:49:46Z</time>
      </trkpt>
      <trkpt lat="45.31194" lon="5.88419">
        <ele>1030</ele>
        <time>2022-03-21T07:49:54Z</time>
      </trkpt>
      <trkpt lat="45.31224" lon="5.88409">
        <ele>1028</ele>
        <time>2022-03-21T07:50:01Z</time>
      </trkpt>
      <trkpt lat="45.31254" lon="5.88391">
        <ele>1027</ele>
        <time>2022-03-21T07:50:09Z</time>
      </trkpt>
      <trkpt lat="45.3128" lon="5.88363">
        <ele>1029</ele>
        <time>2022-03-21T07:50:16Z</time>
      </trkpt>
      <trkpt lat="45.31253" lon="5.88365">
        <ele>1035</ele>
        <time>2022-03-21T07:50:23Z</time>
      </trkpt>
      <trkpt lat="45.31217" lon="5.88365">
        <ele>1041</ele>
        <time>2022-03-21T07:50:31Z</time>
      </trkpt>
      <trkpt lat="45.31179" lon="5.88368">
        <ele>1048</ele>
        <time>2022-03-21T07:50:40Z</time>
      </trkpt>
      <trkpt lat="45.31163" lon="5.88366">
        <ele>1050</ele>
        <time>2022-03-21T07:50:44Z</time>
      </trkpt>
      <trkpt lat="45.31152" lon="5.88365">
        <ele>1049</ele>
        <time>2022-03-21T07:50:46Z</time>
      </trkpt>
      <trkpt lat="45.31141" lon="5.88359">
        <ele>1049</ele>
        <time>2022-03-21T07:50:49Z</time>
      </trkpt>
      <trkpt lat="45.3113" lon="5.88355">
        <ele>1049</ele>
        <time>2022-03-21T07:50:52Z</time>
      </trkpt>
      <trkpt lat="45.31083" lon="5.88324">
        <ele>1049</ele>
        <time>2022-03-21T07:51:04Z</time>
      </trkpt>
      <trkpt lat="45.31063" lon="5.88263">
        <ele>1051</ele>
        <time>2022-03-21T07:51:15Z</time>
      </trkpt>
      <trkpt lat="45.31035" lon="5.88198">
        <ele>1052</ele>
        <time>2022-03-21T07:51:27Z</time>
      </trkpt>
      <trkpt lat="45.3101" lon="5.88137">
        <ele>1057</ele>
        <time>2022-03-21T07:51:39Z</time>
      </trkpt>
      <trkpt lat="45.30984" lon="5.88093">
        <ele>1062</ele>
        <time>2022-03-21T07:51:48Z</time>
      </trkpt>
      <trkpt lat="45.30971" lon="5.88032">
        <ele>1075</ele>
        <time>2022-03-21T07:51:59Z</time>
      </trkpt>
      <trkpt lat="45.31045" lon="5.88079">
        <ele>1078</ele>
        <time>2022-03-21T07:52:18Z</time>
      </trkpt>
      <trkpt lat="45.31126" lon="5.88144">
        <ele>1081</ele>
        <time>2022-03-21T07:52:39Z</time>
      </trkpt>
      <trkpt lat="45.31195" lon="5.88184">
        <ele>1082</ele>
        <time>2022-03-21T07:52:57Z</time>
      </trkpt>
      <trkpt lat="45.31195" lon="5.88137">
        <ele>1091</ele>
        <time>2022-03-21T07:53:04Z</time>
      </trkpt>
      <trkpt lat="45.31157" lon="5.88065">
        <ele>1101</ele>
        <time>2022-03-21T07:53:19Z</time>
      </trkpt>
      <trkpt lat="45.31147" lon="5.88039">
        <ele>1103</ele>
        <time>2022-03-21T07:53:24Z</time>
      </trkpt>
      <trkpt lat="45.31124" lon="5.87982">
        <ele>1108</ele>
        <time>2022-03-21T07:53:35Z</time>
      </trkpt>
      <trkpt lat="45.31098" lon="5.87906">
        <ele>1119</ele>
        <time>2022-03-21T07:53:49Z</time>
      </trkpt>
      <trkpt lat="45.31187" lon="5.87949">
        <ele>1124</ele>
        <time>2022-03-21T07:54:11Z</time>
      </trkpt>
      <trkpt lat="45.31258" lon="5.87971">
        <ele>1132</ele>
        <time>2022-03-21T07:54:28Z</time>
      </trkpt>
      <trkpt lat="45.31299" lon="5.87935">
        <ele>1140</ele>
        <time>2022-03-21T07:54:39Z</time>
      </trkpt>
      <trkpt lat="45.31266" lon="5.87902">
        <ele>1146</ele>
        <time>2022-03-21T07:54:48Z</time>
      </trkpt>
      <trkpt lat="45.3123" lon="5.87877">
        <ele>1148</ele>
        <time>2022-03-21T07:54:58Z</time>
      </trkpt>
      <trkpt lat="45.31177" lon="5.87823">
        <ele>1154</ele>
        <time>2022-03-21T07:55:13Z</time>
      </trkpt>
      <trkpt lat="45.31152" lon="5.87794">
        <ele>1155</ele>
        <time>2022-03-21T07:55:21Z</time>
      </trkpt>
      <trkpt lat="45.31119" lon="5.87715">
        <ele>1161</ele>
        <time>2022-03-21T07:55:36Z</time>
      </trkpt>
    </trkseg>
  </trk>
</gpx>